createdAt,value
2019-04-24T00:06:44.250Z,16.00
2019-04-24T00:09:14.650Z,16.00
2019-04-24T00:12:13.038Z,16.10
2019-04-24T00:17:54.636Z,16.00
2019-04-24T00:22:58.760Z,15.90
2019-04-24T00:25:32.862Z,15.80
2019-04-24T00:27:56.215Z,15.80
2019-04-24T00:30:26.073Z,15.80
2019-04-24T00:33:05.619Z,15.70
2019-04-24T00:35:33.134Z,15.60
2019-04-24T00:40:22.604Z,15.40
2019-04-24T00:43:21.182Z,15.40
2019-04-24T00:50:35.671Z,15.30
2019-04-24T00:53:31.810Z,15.30
2019-04-24T00:55:39.428Z,15.20
2019-04-24T00:58:03.581Z,15.30
2019-04-24T01:00:46.490Z,15.30
2019-04-24T01:03:45.642Z,15.30
2019-04-24T01:06:03.244Z,15.20
2019-04-24T01:08:29.018Z,15.20
2019-04-24T01:11:19.068Z,15.10
2019-04-24T01:13:59.740Z,15.20
2019-04-24T01:18:50.303Z,15.10
2019-04-24T01:21:22.375Z,15.10
2019-04-24T01:26:28.996Z,15.00
2019-04-24T01:28:53.213Z,14.80
2019-04-24T01:42:25.021Z,14.70
2019-04-24T01:44:58.365Z,14.70
2019-04-24T01:54:49.068Z,14.60
2019-04-24T02:00:06.327Z,14.60
2019-04-24T02:02:44.512Z,14.50
2019-04-24T02:05:00.659Z,14.50
2019-04-24T02:08:02.539Z,14.50
2019-04-24T02:18:11.527Z,14.30
2019-04-24T02:20:37.709Z,14.20
2019-04-24T02:23:16.532Z,14.20
2019-04-24T02:25:47.604Z,14.30
2019-04-24T02:28:25.687Z,14.40
2019-04-24T02:33:41.163Z,14.40
2019-04-24T02:36:17.253Z,14.40
2019-04-24T02:39:04.893Z,14.40
2019-04-24T02:41:44.437Z,14.30
2019-04-24T02:44:26.167Z,14.40
2019-04-24T02:49:23.231Z,14.30
2019-04-24T02:54:22.192Z,14.00
2019-04-24T02:59:20.403Z,14.10
2019-04-24T03:07:10.941Z,13.80
2019-04-24T03:09:31.544Z,13.80
2019-04-24T03:14:40.737Z,13.90
2019-04-24T03:17:22.505Z,13.80
2019-04-24T03:19:49.650Z,13.80
2019-04-24T03:22:19.990Z,13.80
2019-04-24T03:24:57.445Z,13.80
2019-04-24T03:27:35.744Z,13.90
2019-04-24T03:51:50.134Z,13.50
2019-04-24T03:59:10.326Z,13.50
2019-04-24T04:02:05.818Z,13.40
2019-04-24T04:15:00.449Z,13.30
2019-04-24T04:25:38.483Z,13.30
2019-04-24T04:30:51.193Z,13.10
2019-04-24T04:33:31.938Z,13.10
2019-04-24T04:35:56.764Z,13.00
2019-04-24T04:43:56.493Z,13.00
2019-04-24T04:46:50.598Z,13.00
2019-04-24T04:49:22.029Z,13.00
2019-04-24T04:51:41.314Z,13.00
2019-04-24T04:54:11.210Z,13.00
2019-04-24T04:56:38.462Z,13.00
2019-04-24T05:02:31.734Z,13.10
2019-04-24T05:12:31.516Z,13.00
2019-04-24T05:17:45.044Z,13.00
2019-04-24T05:19:44.167Z,13.30
2019-04-24T05:25:27.288Z,13.90
2019-04-24T05:33:25.041Z,13.70
2019-04-24T05:38:45.303Z,13.40
2019-04-24T05:41:32.881Z,13.50
2019-04-24T05:51:30.771Z,13.20
2019-04-24T05:59:33.485Z,13.50
2019-04-24T06:02:29.999Z,13.60
2019-04-24T06:04:52.499Z,13.70
2019-04-24T06:07:27.807Z,13.50
2019-04-24T06:10:14.578Z,13.60
2019-04-24T06:12:53.632Z,13.70
2019-04-24T06:15:42.809Z,13.70
2019-04-24T06:18:17.368Z,13.80
2019-04-24T06:21:00.501Z,13.90
2019-04-24T06:34:00.626Z,14.40
2019-04-24T06:47:42.027Z,14.70
2019-04-24T06:49:27.600Z,14.80
2019-04-24T07:00:32.080Z,15.20
2019-04-24T07:02:51.033Z,15.30
2019-04-24T07:05:26.605Z,15.60
2019-04-24T07:14:00.008Z,16.10
2019-04-24T07:16:33.795Z,16.40
2019-04-24T07:18:36.458Z,16.70
2019-04-24T07:21:46.179Z,17.20
2019-04-24T07:26:45.442Z,18.30
2019-04-24T07:29:24.119Z,18.90
2019-04-24T07:31:56.143Z,19.20
2019-04-24T07:34:40.861Z,19.70
2019-04-24T07:37:20.444Z,20.20
2019-04-24T07:39:50.480Z,20.50
2019-04-24T07:44:50.474Z,21.00
2019-04-24T07:47:21.558Z,21.00
2019-04-24T07:49:52.920Z,21.50
2019-04-24T07:52:34.537Z,21.70
2019-04-24T07:57:35.809Z,21.80
2019-04-24T08:00:11.315Z,22.20
2019-04-24T08:02:51.061Z,22.60
2019-04-24T08:05:15.777Z,22.90
2019-04-24T08:10:41.292Z,23.20
2019-04-24T08:13:31.539Z,23.00
2019-04-24T08:18:28.053Z,23.70
2019-04-24T08:26:07.015Z,24.00
2019-04-24T08:36:54.954Z,24.60
2019-04-24T08:45:07.766Z,24.90
2019-04-24T08:52:53.190Z,24.50
2019-04-24T09:00:38.382Z,24.70
2019-04-24T09:08:40.703Z,24.50
2019-04-24T09:11:32.965Z,24.40
2019-04-24T09:14:13.245Z,24.40
2019-04-24T09:19:06.795Z,24.10
2019-04-24T09:29:49.525Z,23.60
2019-04-24T09:34:40.711Z,23.60
2019-04-24T09:37:15.945Z,24.00
2019-04-24T09:45:19.958Z,24.50
2019-04-24T09:49:02.082Z,24.90
2019-04-24T09:54:43.406Z,25.20
2019-04-24T09:59:38.123Z,25.20
2019-04-24T10:05:13.071Z,25.50
2019-04-24T10:07:40.994Z,25.50
2019-04-24T10:10:17.130Z,25.40
2019-04-24T10:15:34.399Z,25.60
2019-04-24T10:18:04.105Z,25.80
2019-04-24T10:20:41.199Z,25.80
2019-04-24T10:23:48.078Z,25.90
2019-04-24T10:26:13.423Z,25.90
2019-04-24T10:29:23.882Z,25.80
2019-04-24T10:35:05.695Z,25.90
2019-04-24T10:38:16.381Z,25.90
2019-04-24T10:40:42.987Z,25.70
2019-04-24T10:43:30.989Z,25.60
2019-04-24T10:46:24.597Z,25.50
2019-04-24T10:49:16.404Z,25.50
2019-04-24T10:54:23.991Z,25.50
2019-04-24T10:56:50.155Z,25.70
2019-04-24T10:59:34.188Z,25.50
2019-04-24T11:02:22.825Z,25.60
2019-04-24T11:04:55.016Z,25.70
2019-04-24T11:07:45.409Z,25.70
2019-04-24T11:10:27.756Z,25.80
2019-04-24T11:16:34.855Z,25.80
2019-04-24T11:19:21.739Z,25.90
2019-04-24T11:22:02.785Z,25.80
2019-04-24T11:24:43.973Z,26.10
2019-04-24T11:30:02.123Z,26.30
2019-04-24T11:38:18.868Z,26.20
2019-04-24T11:41:09.675Z,26.50
2019-04-24T11:43:50.537Z,26.40
2019-04-24T11:47:01.430Z,26.40
2019-04-24T11:52:04.535Z,26.10
2019-04-24T11:54:37.862Z,25.90
2019-04-24T11:59:37.899Z,25.70
2019-04-24T12:02:39.683Z,25.40
2019-04-24T12:08:51.539Z,25.50
2019-04-24T12:11:26.284Z,25.60
2019-04-24T12:16:46.875Z,26.30
2019-04-24T12:19:26.124Z,26.50
2019-04-24T12:24:22.372Z,26.80
2019-04-24T12:26:57.171Z,26.90
2019-04-24T12:29:35.392Z,27.00
2019-04-24T12:32:20.249Z,27.00
2019-04-24T12:35:14.321Z,26.70
2019-04-24T12:37:29.880Z,26.50
2019-04-24T12:40:25.185Z,26.00
2019-04-24T12:42:55.763Z,26.20
2019-04-24T12:45:31.935Z,26.50
2019-04-24T12:47:49.164Z,26.50
2019-04-24T12:50:26.707Z,26.30
2019-04-24T12:52:58.181Z,26.30
2019-04-24T12:55:52.512Z,26.30
2019-04-24T12:58:42.748Z,26.10
2019-04-24T13:01:36.427Z,26.00
2019-04-24T13:06:33.359Z,26.30
2019-04-24T13:09:18.672Z,26.50
2019-04-24T13:12:03.689Z,26.70
2019-04-24T13:14:48.118Z,26.90
2019-04-24T13:17:35.359Z,27.00
2019-04-24T13:21:51.179Z,27.00
2019-04-24T13:24:49.061Z,27.00
2019-04-24T13:27:29.735Z,26.80
2019-04-24T13:30:10.469Z,26.90
2019-04-24T13:33:14.571Z,26.90
2019-04-24T13:35:25.138Z,27.00
2019-04-24T13:40:39.905Z,27.10
2019-04-24T13:45:47.426Z,27.40
2019-04-24T13:48:16.713Z,27.30
2019-04-24T13:50:46.292Z,27.30
2019-04-24T13:53:34.419Z,27.30
2019-04-24T13:55:43.298Z,27.30
2019-04-24T14:01:09.590Z,27.50
2019-04-24T14:03:50.717Z,27.30
2019-04-24T14:06:06.399Z,27.20
2019-04-24T14:13:27.571Z,27.30
2019-04-24T14:18:35.955Z,27.10
2019-04-24T14:24:02.067Z,27.10
2019-04-24T14:26:43.800Z,26.90
2019-04-24T14:28:48.820Z,26.80
2019-04-24T14:31:44.046Z,26.70
2019-04-24T14:34:01.889Z,26.60
2019-04-24T14:36:50.287Z,26.50
2019-04-24T14:39:06.122Z,26.40
2019-04-24T14:46:58.998Z,26.30
2019-04-24T14:49:28.146Z,26.30
2019-04-24T14:54:27.378Z,26.20
2019-04-24T14:57:01.609Z,26.20
2019-04-24T15:02:02.636Z,26.10
2019-04-24T15:04:22.017Z,26.10
2019-04-24T15:07:08.532Z,26.20
2019-04-24T15:12:10.599Z,26.10
2019-04-24T15:19:53.070Z,25.90
2019-04-24T15:22:31.561Z,25.90
2019-04-24T15:27:12.390Z,25.80
2019-04-24T15:29:46.512Z,25.70
2019-04-24T15:32:20.076Z,25.70
2019-04-24T15:34:57.168Z,25.70
2019-04-24T15:40:03.800Z,25.70
2019-04-24T15:42:14.559Z,25.70
2019-04-24T15:44:58.178Z,25.80
2019-04-24T15:50:00.221Z,25.80
2019-04-24T15:51:52.577Z,25.80
2019-04-24T15:54:21.822Z,25.90
2019-04-24T15:56:51.051Z,25.80
2019-04-24T15:59:49.545Z,25.70
2019-04-24T16:02:55.597Z,25.70
2019-04-24T16:04:54.047Z,25.70
2019-04-24T16:07:11.363Z,25.70
2019-04-24T16:09:42.036Z,25.70
2019-04-24T16:12:11.200Z,25.80
2019-04-24T16:14:59.930Z,25.70
2019-04-24T16:17:42.638Z,25.80
2019-04-24T16:22:40.592Z,25.60
2019-04-24T16:30:24.464Z,25.50
2019-04-24T16:35:24.866Z,25.70
2019-04-24T16:37:50.827Z,25.60
2019-04-24T16:43:42.282Z,25.50
2019-04-24T16:46:38.710Z,25.40
2019-04-24T16:54:04.891Z,25.20
2019-04-24T16:56:25.166Z,25.20
2019-04-24T16:58:51.495Z,25.20
2019-04-24T17:04:19.570Z,24.90
2019-04-24T17:06:39.001Z,24.80
2019-04-24T17:09:03.655Z,24.80
2019-04-24T17:11:26.448Z,24.70
2019-04-24T17:14:08.618Z,24.50
2019-04-24T17:19:51.746Z,22.80
2019-04-24T17:24:55.916Z,21.30
2019-04-24T17:29:53.782Z,20.90
2019-04-24T17:32:28.608Z,20.70
2019-04-24T17:35:13.142Z,20.50
2019-04-24T17:36:57.143Z,20.20
2019-04-24T17:39:37.940Z,19.90
2019-04-24T17:42:12.572Z,19.60
2019-04-24T17:45:05.232Z,19.50
2019-04-24T17:52:48.612Z,18.90
2019-04-24T17:55:11.152Z,18.80
2019-04-24T17:59:48.443Z,18.70
2019-04-24T18:02:21.277Z,18.60
2019-04-24T18:04:51.670Z,18.50
2019-04-24T18:07:21.675Z,18.40
2019-04-24T18:09:52.141Z,18.20
2019-04-24T18:12:22.054Z,18.10
2019-04-24T18:14:51.484Z,17.80
2019-04-24T18:17:22.165Z,17.70
2019-04-24T18:19:51.555Z,17.40
2019-04-24T18:22:20.696Z,17.30
2019-04-24T18:25:11.989Z,17.20
2019-04-24T18:27:42.016Z,17.10
2019-04-24T18:30:13.828Z,17.00
2019-04-24T18:32:43.161Z,17.10
2019-04-24T18:35:12.551Z,17.10
2019-04-24T18:37:42.942Z,17.00
2019-04-24T18:40:13.901Z,17.00
2019-04-24T18:42:43.212Z,16.90
2019-04-24T18:45:15.030Z,16.80
2019-04-24T18:47:43.820Z,16.70
2019-04-24T18:50:13.592Z,16.50
2019-04-24T18:52:49.763Z,16.40
2019-04-24T18:55:14.448Z,16.30
2019-04-24T18:57:43.724Z,16.30
2019-04-24T19:00:13.080Z,16.30
2019-04-24T19:02:42.500Z,16.20
2019-04-24T19:05:13.822Z,16.10
2019-04-24T19:07:42.632Z,15.90
2019-04-24T19:10:12.704Z,15.80
2019-04-24T19:12:42.798Z,15.60
2019-04-24T19:15:12.937Z,15.70
2019-04-24T19:17:54.272Z,15.60
2019-04-24T19:20:15.993Z,15.70
2019-04-24T19:22:45.377Z,15.60
2019-04-24T19:25:15.093Z,15.60
2019-04-24T19:27:44.396Z,15.50
2019-04-24T19:30:14.628Z,15.60
2019-04-24T19:32:43.909Z,15.50
2019-04-24T19:35:13.861Z,15.50
2019-04-24T19:37:43.801Z,15.50
2019-04-24T19:40:30.842Z,15.50
2019-04-24T19:42:44.219Z,15.50
2019-04-24T19:45:13.679Z,15.40
2019-04-24T19:47:42.992Z,15.40
2019-04-24T19:50:13.423Z,15.40
2019-04-24T19:52:43.214Z,15.30
2019-04-24T19:55:15.586Z,15.30
2019-04-24T19:57:43.345Z,15.30
2019-04-24T20:00:14.696Z,15.40
2019-04-24T20:02:43.941Z,15.30
2019-04-24T20:05:16.757Z,15.20
2019-04-24T20:07:45.280Z,15.10
2019-04-24T20:10:29.364Z,15.10
2019-04-24T20:12:58.572Z,15.00
2019-04-24T20:15:27.823Z,15.00
2019-04-24T20:17:57.994Z,14.90
2019-04-24T20:20:27.209Z,14.90
2019-04-24T20:22:56.469Z,14.90
2019-04-24T20:25:25.702Z,14.90
2019-04-24T20:27:54.912Z,14.80
2019-04-24T20:30:24.200Z,14.70
2019-04-24T20:32:53.480Z,14.70
2019-04-24T20:35:22.867Z,14.70
2019-04-24T20:37:52.185Z,14.70
2019-04-24T20:40:23.658Z,14.60
2019-04-24T20:42:52.284Z,14.60
2019-04-24T20:45:22.034Z,14.40
2019-04-24T20:47:52.063Z,14.50
2019-04-24T20:50:22.343Z,14.40
2019-04-24T20:52:52.114Z,14.40
2019-04-24T20:55:22.701Z,14.50
2019-04-24T20:57:52.360Z,14.50
2019-04-24T21:00:25.779Z,14.40
2019-04-24T21:02:55.265Z,14.40
2019-04-24T21:05:31.779Z,14.50
2019-04-24T21:08:18.599Z,14.40
2019-04-24T21:10:47.824Z,14.40
2019-04-24T21:13:17.736Z,14.30
2019-04-24T21:15:47.776Z,14.30
2019-04-24T21:18:17.143Z,14.20
2019-04-24T21:20:46.372Z,14.20
2019-04-24T21:23:15.549Z,14.10
2019-04-24T21:25:44.694Z,14.00
2019-04-24T21:28:13.817Z,13.80
2019-04-24T21:30:43.043Z,13.90
2019-04-24T21:33:12.266Z,13.90
2019-04-24T21:35:42.474Z,14.00
2019-04-24T21:38:11.822Z,13.90
2019-04-24T21:40:42.096Z,13.80
2019-04-24T21:43:11.431Z,13.80
2019-04-24T21:45:42.481Z,13.70
2019-04-24T21:48:12.171Z,13.60
2019-04-24T21:50:41.459Z,13.60
2019-04-24T21:53:11.730Z,13.60
2019-04-24T21:55:41.092Z,13.50
2019-04-24T21:58:11.935Z,13.50
2019-04-24T22:01:11.338Z,13.50
2019-04-24T22:03:54.931Z,13.40
2019-04-24T22:06:39.120Z,13.50
2019-04-24T22:09:12.889Z,13.30
2019-04-24T22:11:42.448Z,13.30
2019-04-24T22:14:13.644Z,13.30
2019-04-24T22:16:42.744Z,13.30
2019-04-24T22:19:12.372Z,13.30
2019-04-24T22:21:46.786Z,13.10
2019-04-24T22:24:23.740Z,13.20
2019-04-24T22:26:53.026Z,13.20
2019-04-24T22:29:22.323Z,13.20
2019-04-24T22:32:12.047Z,13.20
2019-04-24T22:34:45.152Z,13.10
2019-04-24T22:37:14.305Z,13.10
2019-04-24T22:40:16.973Z,13.10
2019-04-24T22:42:45.860Z,13.10
2019-04-24T22:45:15.580Z,12.90
2019-04-24T22:47:44.988Z,12.90
2019-04-24T22:50:14.708Z,12.80
2019-04-24T22:52:43.912Z,12.80
2019-04-24T22:55:17.021Z,12.90
2019-04-24T22:57:46.236Z,12.90
2019-04-24T23:00:23.812Z,12.70
2019-04-24T23:02:53.412Z,12.60
2019-04-24T23:05:22.756Z,12.60
2019-04-24T23:07:51.872Z,12.60
2019-04-24T23:10:42.856Z,12.60
2019-04-24T23:13:12.019Z,12.50
2019-04-24T23:15:41.541Z,12.40
2019-04-24T23:18:13.268Z,12.40
2019-04-24T23:21:00.220Z,12.30
2019-04-24T23:23:54.170Z,12.20
2019-04-24T23:26:45.386Z,12.00
2019-04-24T23:29:22.083Z,11.90
2019-04-24T23:32:10.441Z,12.10
2019-04-24T23:34:42.504Z,12.20
2019-04-24T23:37:12.019Z,12.20
2019-04-24T23:39:42.160Z,12.30
2019-04-24T23:42:11.360Z,12.10
2019-04-24T23:44:42.155Z,12.10
2019-04-24T23:47:11.507Z,11.90
2019-04-24T23:49:43.193Z,11.90
2019-04-24T23:52:12.433Z,11.90
2019-04-24T23:54:43.922Z,11.90
2019-04-24T23:57:12.548Z,11.90
2019-04-24T23:59:44.496Z,11.80
